sensor_id;sensor_type;location;lat;lon;timestamp;P1;durP1;ratioP1;P2;durP2;ratioP2
81195;SDS011;70671;43.888;-79.394;2023-08-06T00:01:57;8.55;;;2.75;;
81195;SDS011;70671;43.888;-79.394;2023-08-06T00:04:23;6.32;;;2.47;;
81195;SDS011;70671;43.888;-79.394;2023-08-06T00:06:49;6.57;;;2.55;;
81195;SDS011;70671;43.888;-79.394;2023-08-06T00:09:15;5.82;;;2.40;;
81195;SDS011;70671;43.888;-79.394;2023-08-06T00:11:41;6.55;;;2.50;;
81195;SDS011;70671;43.888;-79.394;2023-08-06T00:14:09;5.97;;;2.63;;
81195;SDS011;70671;43.888;-79.394;2023-08-06T00:16:35;5.55;;;2.28;;
81195;SDS011;70671;43.888;-79.394;2023-08-06T00:19:01;6.18;;;2.25;;
81195;SDS011;70671;43.888;-79.394;2023-08-06T00:21:27;6.38;;;2.50;;
81195;SDS011;70671;43.888;-79.394;2023-08-06T00:23:53;5.05;;;2.28;;
81195;SDS011;70671;43.888;-79.394;2023-08-06T00:26:19;5.90;;;2.15;;
81195;SDS011;70671;43.888;-79.394;2023-08-06T00:28:45;6.30;;;2.40;;
81195;SDS011;70671;43.888;-79.394;2023-08-06T00:31:11;6.45;;;2.33;;
81195;SDS011;70671;43.888;-79.394;2023-08-06T00:33:37;9.13;;;2.65;;
81195;SDS011;70671;43.888;-79.394;2023-08-06T00:36:03;5.10;;;1.95;;
81195;SDS011;70671;43.888;-79.394;2023-08-06T00:38:29;6.25;;;2.08;;
81195;SDS011;70671;43.888;-79.394;2023-08-06T00:40:54;7.10;;;3.10;;
81195;SDS011;70671;43.888;-79.394;2023-08-06T00:43:20;9.02;;;4.18;;
81195;SDS011;70671;43.888;-79.394;2023-08-06T00:45:46;8.98;;;4.03;;
81195;SDS011;70671;43.888;-79.394;2023-08-06T00:48:12;7.70;;;4.00;;
81195;SDS011;70671;43.888;-79.394;2023-08-06T00:50:38;10.90;;;4.45;;
81195;SDS011;70671;43.888;-79.394;2023-08-06T00:53:05;9.77;;;4.25;;
81195;SDS011;70671;43.888;-79.394;2023-08-06T00:55:31;8.85;;;3.83;;
81195;SDS011;70671;43.888;-79.394;2023-08-06T00:57:58;8.68;;;3.42;;
81195;SDS011;70671;43.888;-79.394;2023-08-06T01:00:24;10.30;;;4.20;;
81195;SDS011;70671;43.888;-79.394;2023-08-06T01:02:51;9.57;;;4.35;;
81195;SDS011;70671;43.888;-79.394;2023-08-06T01:05:18;9.27;;;3.70;;
81195;SDS011;70671;43.888;-79.394;2023-08-06T01:10:47;9.73;;;4.15;;
81195;SDS011;70671;43.888;-79.394;2023-08-06T01:16:09;7.60;;;3.90;;
81195;SDS011;70671;43.888;-79.394;2023-08-06T01:18:36;9.70;;;4.53;;
81195;SDS011;70671;43.888;-79.394;2023-08-06T01:21:04;10.20;;;4.38;;
81195;SDS011;70671;43.888;-79.394;2023-08-06T01:23:30;9.07;;;4.22;;
81195;SDS011;70671;43.888;-79.394;2023-08-06T01:26:00;9.75;;;4.38;;
81195;SDS011;70671;43.888;-79.394;2023-08-06T01:31:41;8.93;;;4.30;;
81195;SDS011;70671;43.888;-79.394;2023-08-06T01:34:28;8.73;;;4.75;;
81195;SDS011;70671;43.888;-79.394;2023-08-06T01:36:56;10.65;;;4.10;;
81195;SDS011;70671;43.888;-79.394;2023-08-06T01:39:24;8.52;;;4.22;;
81195;SDS011;70671;43.888;-79.394;2023-08-06T01:41:50;8.80;;;4.13;;
81195;SDS011;70671;43.888;-79.394;2023-08-06T01:44:16;8.57;;;4.28;;
81195;SDS011;70671;43.888;-79.394;2023-08-06T01:46:43;9.90;;;4.38;;
81195;SDS011;70671;43.888;-79.394;2023-08-06T01:49:09;10.95;;;4.53;;
81195;SDS011;70671;43.888;-79.394;2023-08-06T01:51:35;10.38;;;4.28;;
81195;SDS011;70671;43.888;-79.394;2023-08-06T01:54:00;9.90;;;4.38;;
81195;SDS011;70671;43.888;-79.394;2023-08-06T01:56:27;8.95;;;4.13;;
81195;SDS011;70671;43.888;-79.394;2023-08-06T01:58:52;10.38;;;4.50;;
81195;SDS011;70671;43.888;-79.394;2023-08-06T02:01:18;9.80;;;4.32;;
81195;SDS011;70671;43.888;-79.394;2023-08-06T02:03:44;8.43;;;4.07;;
81195;SDS011;70671;43.888;-79.394;2023-08-06T02:06:10;11.10;;;4.07;;
81195;SDS011;70671;43.888;-79.394;2023-08-06T02:08:36;9.50;;;4.18;;
81195;SDS011;70671;43.888;-79.394;2023-08-06T02:11:02;10.23;;;4.32;;
81195;SDS011;70671;43.888;-79.394;2023-08-06T02:13:28;10.07;;;4.40;;
81195;SDS011;70671;43.888;-79.394;2023-08-06T02:15:54;8.73;;;4.35;;
81195;SDS011;70671;43.888;-79.394;2023-08-06T02:18:20;10.77;;;4.38;;
81195;SDS011;70671;43.888;-79.394;2023-08-06T02:20:57;10.32;;;4.25;;
81195;SDS011;70671;43.888;-79.394;2023-08-06T02:23:24;8.25;;;3.40;;
81195;SDS011;70671;43.888;-79.394;2023-08-06T02:26:00;7.25;;;3.03;;
81195;SDS011;70671;43.888;-79.394;2023-08-06T02:28:28;7.50;;;2.97;;
81195;SDS011;70671;43.888;-79.394;2023-08-06T02:30:54;7.05;;;3.05;;
81195;SDS011;70671;43.888;-79.394;2023-08-06T02:33:21;7.03;;;3.17;;
81195;SDS011;70671;43.888;-79.394;2023-08-06T02:35:47;7.00;;;2.90;;
81195;SDS011;70671;43.888;-79.394;2023-08-06T02:38:13;9.13;;;3.05;;
81195;SDS011;70671;43.888;-79.394;2023-08-06T02:40:45;7.55;;;2.80;;
81195;SDS011;70671;43.888;-79.394;2023-08-06T02:43:12;8.50;;;3.42;;
81195;SDS011;70671;43.888;-79.394;2023-08-06T02:45:38;6.55;;;2.80;;
81195;SDS011;70671;43.888;-79.394;2023-08-06T02:48:04;6.60;;;3.13;;
81195;SDS011;70671;43.888;-79.394;2023-08-06T02:50:31;8.10;;;3.22;;
81195;SDS011;70671;43.888;-79.394;2023-08-06T02:52:57;6.95;;;2.80;;
81195;SDS011;70671;43.888;-79.394;2023-08-06T02:55:22;6.63;;;2.83;;
81195;SDS011;70671;43.888;-79.394;2023-08-06T02:57:48;8.45;;;3.17;;
81195;SDS011;70671;43.888;-79.394;2023-08-06T03:00:14;6.63;;;2.88;;
81195;SDS011;70671;43.888;-79.394;2023-08-06T03:02:40;7.78;;;2.90;;
81195;SDS011;70671;43.888;-79.394;2023-08-06T03:05:06;6.90;;;3.05;;
81195;SDS011;70671;43.888;-79.394;2023-08-06T03:07:32;8.52;;;3.40;;
81195;SDS011;70671;43.888;-79.394;2023-08-06T03:09:59;8.00;;;3.17;;
81195;SDS011;70671;43.888;-79.394;2023-08-06T03:12:27;7.32;;;2.80;;
81195;SDS011;70671;43.888;-79.394;2023-08-06T03:14:53;8.10;;;3.00;;
81195;SDS011;70671;43.888;-79.394;2023-08-06T03:17:19;7.45;;;3.50;;
81195;SDS011;70671;43.888;-79.394;2023-08-06T03:19:45;7.28;;;3.20;;
81195;SDS011;70671;43.888;-79.394;2023-08-06T03:22:10;6.63;;;2.55;;
81195;SDS011;70671;43.888;-79.394;2023-08-06T03:24:36;7.68;;;3.33;;
81195;SDS011;70671;43.888;-79.394;2023-08-06T03:27:02;7.57;;;3.05;;
81195;SDS011;70671;43.888;-79.394;2023-08-06T03:29:30;7.05;;;3.08;;
81195;SDS011;70671;43.888;-79.394;2023-08-06T03:31:56;7.85;;;2.90;;
81195;SDS011;70671;43.888;-79.394;2023-08-06T03:34:21;6.90;;;2.92;;
81195;SDS011;70671;43.888;-79.394;2023-08-06T03:36:47;8.25;;;3.15;;
81195;SDS011;70671;43.888;-79.394;2023-08-06T03:39:13;8.23;;;3.58;;
81195;SDS011;70671;43.888;-79.394;2023-08-06T03:41:39;7.53;;;2.88;;
81195;SDS011;70671;43.888;-79.394;2023-08-06T03:44:06;8.57;;;3.45;;
81195;SDS011;70671;43.888;-79.394;2023-08-06T03:46:32;8.35;;;3.63;;
81195;SDS011;70671;43.888;-79.394;2023-08-06T03:48:59;8.38;;;2.65;;
81195;SDS011;70671;43.888;-79.394;2023-08-06T03:51:26;7.80;;;2.88;;
81195;SDS011;70671;43.888;-79.394;2023-08-06T03:53:51;8.23;;;2.83;;
81195;SDS011;70671;43.888;-79.394;2023-08-06T03:56:17;7.10;;;2.55;;
81195;SDS011;70671;43.888;-79.394;2023-08-06T03:58:43;8.60;;;2.95;;
81195;SDS011;70671;43.888;-79.394;2023-08-06T04:01:09;6.32;;;2.63;;
81195;SDS011;70671;43.888;-79.394;2023-08-06T04:03:35;6.72;;;3.15;;
81195;SDS011;70671;43.888;-79.394;2023-08-06T04:06:02;7.10;;;2.75;;
81195;SDS011;70671;43.888;-79.394;2023-08-06T04:08:28;7.75;;;3.05;;
81195;SDS011;70671;43.888;-79.394;2023-08-06T04:10:54;8.10;;;3.10;;
81195;SDS011;70671;43.888;-79.394;2023-08-06T04:13:20;6.55;;;3.08;;
81195;SDS011;70671;43.888;-79.394;2023-08-06T04:15:46;11.57;;;3.53;;
81195;SDS011;70671;43.888;-79.394;2023-08-06T04:18:13;7.47;;;3.28;;
81195;SDS011;70671;43.888;-79.394;2023-08-06T04:20:46;9.70;;;2.95;;
81195;SDS011;70671;43.888;-79.394;2023-08-06T04:23:14;6.55;;;2.95;;
81195;SDS011;70671;43.888;-79.394;2023-08-06T04:25:40;8.32;;;3.40;;
81195;SDS011;70671;43.888;-79.394;2023-08-06T04:28:07;8.48;;;3.63;;
81195;SDS011;70671;43.888;-79.394;2023-08-06T04:30:33;7.35;;;3.38;;
81195;SDS011;70671;43.888;-79.394;2023-08-06T04:32:59;9.18;;;3.53;;
81195;SDS011;70671;43.888;-79.394;2023-08-06T04:35:25;7.70;;;2.45;;
81195;SDS011;70671;43.888;-79.394;2023-08-06T04:37:51;8.15;;;3.55;;
81195;SDS011;70671;43.888;-79.394;2023-08-06T04:40:17;8.52;;;2.92;;
81195;SDS011;70671;43.888;-79.394;2023-08-06T04:42:43;11.30;;;3.58;;
81195;SDS011;70671;43.888;-79.394;2023-08-06T04:45:09;7.85;;;3.40;;
81195;SDS011;70671;43.888;-79.394;2023-08-06T04:47:35;7.32;;;2.80;;
81195;SDS011;70671;43.888;-79.394;2023-08-06T04:50:01;7.55;;;2.92;;
81195;SDS011;70671;43.888;-79.394;2023-08-06T04:52:27;7.53;;;3.10;;
81195;SDS011;70671;43.888;-79.394;2023-08-06T04:54:56;9.88;;;3.85;;
81195;SDS011;70671;43.888;-79.394;2023-08-06T04:57:22;9.82;;;3.30;;
81195;SDS011;70671;43.888;-79.394;2023-08-06T04:59:49;10.18;;;3.15;;
81195;SDS011;70671;43.888;-79.394;2023-08-06T05:02:15;7.50;;;3.13;;
81195;SDS011;70671;43.888;-79.394;2023-08-06T05:04:41;8.95;;;2.88;;
81195;SDS011;70671;43.888;-79.394;2023-08-06T05:07:07;8.05;;;2.90;;
81195;SDS011;70671;43.888;-79.394;2023-08-06T05:09:33;8.63;;;3.42;;
81195;SDS011;70671;43.888;-79.394;2023-08-06T05:12:03;8.20;;;3.65;;
81195;SDS011;70671;43.888;-79.394;2023-08-06T05:14:30;7.65;;;3.47;;
81195;SDS011;70671;43.888;-79.394;2023-08-06T05:16:56;8.05;;;2.90;;
81195;SDS011;70671;43.888;-79.394;2023-08-06T05:19:22;7.90;;;3.05;;
81195;SDS011;70671;43.888;-79.394;2023-08-06T05:21:47;6.30;;;2.70;;
81195;SDS011;70671;43.888;-79.394;2023-08-06T05:24:13;9.18;;;2.92;;
81195;SDS011;70671;43.888;-79.394;2023-08-06T05:26:39;8.27;;;3.78;;
81195;SDS011;70671;43.888;-79.394;2023-08-06T05:29:05;8.80;;;3.50;;
81195;SDS011;70671;43.888;-79.394;2023-08-06T05:31:31;7.93;;;3.10;;
81195;SDS011;70671;43.888;-79.394;2023-08-06T05:33:57;8.20;;;3.50;;
81195;SDS011;70671;43.888;-79.394;2023-08-06T05:36:23;6.85;;;3.10;;
81195;SDS011;70671;43.888;-79.394;2023-08-06T05:38:49;8.05;;;2.78;;
81195;SDS011;70671;43.888;-79.394;2023-08-06T05:41:15;8.40;;;3.00;;
81195;SDS011;70671;43.888;-79.394;2023-08-06T05:43:42;7.90;;;3.33;;
81195;SDS011;70671;43.888;-79.394;2023-08-06T05:46:08;6.57;;;2.92;;
81195;SDS011;70671;43.888;-79.394;2023-08-06T05:48:34;8.60;;;3.10;;
81195;SDS011;70671;43.888;-79.394;2023-08-06T05:51:00;7.88;;;2.88;;
81195;SDS011;70671;43.888;-79.394;2023-08-06T05:53:26;7.68;;;3.45;;
81195;SDS011;70671;43.888;-79.394;2023-08-06T05:55:52;7.57;;;3.05;;
81195;SDS011;70671;43.888;-79.394;2023-08-06T05:58:18;7.70;;;2.97;;
81195;SDS011;70671;43.888;-79.394;2023-08-06T06:00:45;8.48;;;3.38;;
81195;SDS011;70671;43.888;-79.394;2023-08-06T06:03:11;8.70;;;3.50;;
81195;SDS011;70671;43.888;-79.394;2023-08-06T06:05:37;8.27;;;2.97;;
81195;SDS011;70671;43.888;-79.394;2023-08-06T06:08:06;7.47;;;3.15;;
81195;SDS011;70671;43.888;-79.394;2023-08-06T06:10:32;6.80;;;2.78;;
81195;SDS011;70671;43.888;-79.394;2023-08-06T06:12:58;7.38;;;2.97;;
81195;SDS011;70671;43.888;-79.394;2023-08-06T06:15:24;8.18;;;2.78;;
81195;SDS011;70671;43.888;-79.394;2023-08-06T06:17:50;9.32;;;2.90;;
81195;SDS011;70671;43.888;-79.394;2023-08-06T06:20:16;7.00;;;3.03;;
81195;SDS011;70671;43.888;-79.394;2023-08-06T06:22:42;8.10;;;3.10;;
81195;SDS011;70671;43.888;-79.394;2023-08-06T06:25:08;7.50;;;2.95;;
81195;SDS011;70671;43.888;-79.394;2023-08-06T06:27:35;8.20;;;2.97;;
81195;SDS011;70671;43.888;-79.394;2023-08-06T06:30:01;8.13;;;3.20;;
81195;SDS011;70671;43.888;-79.394;2023-08-06T06:32:27;10.80;;;3.40;;
81195;SDS011;70671;43.888;-79.394;2023-08-06T06:34:53;7.97;;;3.00;;
81195;SDS011;70671;43.888;-79.394;2023-08-06T06:37:25;9.82;;;2.85;;
81195;SDS011;70671;43.888;-79.394;2023-08-06T06:39:51;6.47;;;3.20;;
81195;SDS011;70671;43.888;-79.394;2023-08-06T06:42:17;7.30;;;3.10;;
81195;SDS011;70671;43.888;-79.394;2023-08-06T06:44:43;8.13;;;3.20;;
81195;SDS011;70671;43.888;-79.394;2023-08-06T06:47:09;8.98;;;3.42;;
81195;SDS011;70671;43.888;-79.394;2023-08-06T06:49:35;8.18;;;3.05;;
81195;SDS011;70671;43.888;-79.394;2023-08-06T06:52:01;10.02;;;3.92;;
81195;SDS011;70671;43.888;-79.394;2023-08-06T06:54:27;9.13;;;3.40;;
81195;SDS011;70671;43.888;-79.394;2023-08-06T06:56:53;6.68;;;3.08;;
81195;SDS011;70671;43.888;-79.394;2023-08-06T06:59:19;8.32;;;3.38;;
81195;SDS011;70671;43.888;-79.394;2023-08-06T07:01:45;6.72;;;3.10;;
81195;SDS011;70671;43.888;-79.394;2023-08-06T07:04:11;7.50;;;3.05;;
81195;SDS011;70671;43.888;-79.394;2023-08-06T07:06:36;9.60;;;3.72;;
81195;SDS011;70671;43.888;-79.394;2023-08-06T07:09:02;7.85;;;3.42;;
81195;SDS011;70671;43.888;-79.394;2023-08-06T07:11:28;7.90;;;2.95;;
81195;SDS011;70671;43.888;-79.394;2023-08-06T07:13:57;7.93;;;3.42;;
81195;SDS011;70671;43.888;-79.394;2023-08-06T07:16:24;9.25;;;3.55;;
81195;SDS011;70671;43.888;-79.394;2023-08-06T07:18:51;8.13;;;3.05;;
81195;SDS011;70671;43.888;-79.394;2023-08-06T07:21:18;7.97;;;3.08;;
81195;SDS011;70671;43.888;-79.394;2023-08-06T07:23:45;6.82;;;3.33;;
81195;SDS011;70671;43.888;-79.394;2023-08-06T07:26:11;6.80;;;2.85;;
81195;SDS011;70671;43.888;-79.394;2023-08-06T07:28:37;7.60;;;2.90;;
81195;SDS011;70671;43.888;-79.394;2023-08-06T07:31:03;8.23;;;3.95;;
81195;SDS011;70671;43.888;-79.394;2023-08-06T07:33:29;7.13;;;2.97;;
81195;SDS011;70671;43.888;-79.394;2023-08-06T07:35:55;8.68;;;3.50;;
81195;SDS011;70671;43.888;-79.394;2023-08-06T07:38:21;8.07;;;3.33;;
81195;SDS011;70671;43.888;-79.394;2023-08-06T07:40:54;8.65;;;3.90;;
81195;SDS011;70671;43.888;-79.394;2023-08-06T07:43:20;7.57;;;3.38;;
81195;SDS011;70671;43.888;-79.394;2023-08-06T07:45:46;7.65;;;3.35;;
81195;SDS011;70671;43.888;-79.394;2023-08-06T07:48:12;8.00;;;3.35;;
81195;SDS011;70671;43.888;-79.394;2023-08-06T07:50:38;8.77;;;3.90;;
81195;SDS011;70671;43.888;-79.394;2023-08-06T07:53:04;9.02;;;3.40;;
81195;SDS011;70671;43.888;-79.394;2023-08-06T07:55:29;7.10;;;3.00;;
81195;SDS011;70671;43.888;-79.394;2023-08-06T07:57:55;8.43;;;3.50;;
81195;SDS011;70671;43.888;-79.394;2023-08-06T08:00:21;8.88;;;3.58;;
81195;SDS011;70671;43.888;-79.394;2023-08-06T08:02:47;8.95;;;3.30;;
81195;SDS011;70671;43.888;-79.394;2023-08-06T08:05:13;8.88;;;3.40;;
81195;SDS011;70671;43.888;-79.394;2023-08-06T08:07:39;8.25;;;3.25;;
81195;SDS011;70671;43.888;-79.394;2023-08-06T08:10:05;9.25;;;3.38;;
81195;SDS011;70671;43.888;-79.394;2023-08-06T08:12:32;7.47;;;2.67;;
81195;SDS011;70671;43.888;-79.394;2023-08-06T08:14:58;9.70;;;3.47;;
81195;SDS011;70671;43.888;-79.394;2023-08-06T08:17:24;7.80;;;3.25;;
81195;SDS011;70671;43.888;-79.394;2023-08-06T08:19:50;8.48;;;3.45;;
81195;SDS011;70671;43.888;-79.394;2023-08-06T08:22:16;8.60;;;2.80;;
81195;SDS011;70671;43.888;-79.394;2023-08-06T08:24:41;8.70;;;3.58;;
81195;SDS011;70671;43.888;-79.394;2023-08-06T08:27:07;8.27;;;3.10;;
81195;SDS011;70671;43.888;-79.394;2023-08-06T08:29:33;9.18;;;3.65;;
81195;SDS011;70671;43.888;-79.394;2023-08-06T08:31:59;9.77;;;3.70;;
81195;SDS011;70671;43.888;-79.394;2023-08-06T08:34:25;7.93;;;2.95;;
81195;SDS011;70671;43.888;-79.394;2023-08-06T08:36:51;8.45;;;3.30;;
81195;SDS011;70671;43.888;-79.394;2023-08-06T08:39:17;8.48;;;2.92;;
81195;SDS011;70671;43.888;-79.394;2023-08-06T08:41:43;7.18;;;3.17;;
81195;SDS011;70671;43.888;-79.394;2023-08-06T08:44:09;9.15;;;3.70;;
81195;SDS011;70671;43.888;-79.394;2023-08-06T08:46:36;8.40;;;3.35;;
81195;SDS011;70671;43.888;-79.394;2023-08-06T08:49:06;10.10;;;3.15;;
81195;SDS011;70671;43.888;-79.394;2023-08-06T08:51:35;7.95;;;3.35;;
81195;SDS011;70671;43.888;-79.394;2023-08-06T08:54:04;9.48;;;3.28;;
81195;SDS011;70671;43.888;-79.394;2023-08-06T08:56:33;8.48;;;3.45;;
81195;SDS011;70671;43.888;-79.394;2023-08-06T08:58:59;8.20;;;3.10;;
81195;SDS011;70671;43.888;-79.394;2023-08-06T09:01:25;7.00;;;3.20;;
81195;SDS011;70671;43.888;-79.394;2023-08-06T09:03:53;7.47;;;3.22;;
81195;SDS011;70671;43.888;-79.394;2023-08-06T09:06:21;8.55;;;3.47;;
81195;SDS011;70671;43.888;-79.394;2023-08-06T09:14:17;8.35;;;3.15;;
81195;SDS011;70671;43.888;-79.394;2023-08-06T09:16:44;8.27;;;3.50;;
81195;SDS011;70671;43.888;-79.394;2023-08-06T09:19:10;10.55;;;3.45;;
81195;SDS011;70671;43.888;-79.394;2023-08-06T09:21:38;11.00;;;3.78;;
81195;SDS011;70671;43.888;-79.394;2023-08-06T09:24:08;13.10;;;4.30;;
81195;SDS011;70671;43.888;-79.394;2023-08-06T09:26:44;7.70;;;2.95;;
81195;SDS011;70671;43.888;-79.394;2023-08-06T09:29:10;10.13;;;3.50;;
81195;SDS011;70671;43.888;-79.394;2023-08-06T09:31:40;7.75;;;3.55;;
81195;SDS011;70671;43.888;-79.394;2023-08-06T09:36:48;6.50;;;2.97;;
81195;SDS011;70671;43.888;-79.394;2023-08-06T09:39:19;8.27;;;3.53;;
81195;SDS011;70671;43.888;-79.394;2023-08-06T09:41:55;11.18;;;3.60;;
81195;SDS011;70671;43.888;-79.394;2023-08-06T09:44:24;7.97;;;3.30;;
81195;SDS011;70671;43.888;-79.394;2023-08-06T09:46:57;9.65;;;3.65;;
81195;SDS011;70671;43.888;-79.394;2023-08-06T09:49:28;12.82;;;4.10;;
81195;SDS011;70671;43.888;-79.394;2023-08-06T09:52:16;9.13;;;3.22;;
81195;SDS011;70671;43.888;-79.394;2023-08-06T09:54:44;7.68;;;3.60;;
81195;SDS011;70671;43.888;-79.394;2023-08-06T09:57:11;9.88;;;3.75;;
81195;SDS011;70671;43.888;-79.394;2023-08-06T09:59:38;8.38;;;3.45;;
81195;SDS011;70671;43.888;-79.394;2023-08-06T10:02:12;10.02;;;3.78;;
81195;SDS011;70671;43.888;-79.394;2023-08-06T10:04:39;9.23;;;3.47;;
81195;SDS011;70671;43.888;-79.394;2023-08-06T10:07:05;9.93;;;3.58;;
81195;SDS011;70671;43.888;-79.394;2023-08-06T10:09:32;10.13;;;3.55;;
81195;SDS011;70671;43.888;-79.394;2023-08-06T10:11:58;8.82;;;3.58;;
81195;SDS011;70671;43.888;-79.394;2023-08-06T10:14:27;9.77;;;3.33;;
81195;SDS011;70671;43.888;-79.394;2023-08-06T10:16:58;9.43;;;4.00;;
81195;SDS011;70671;43.888;-79.394;2023-08-06T10:19:25;8.40;;;3.42;;
81195;SDS011;70671;43.888;-79.394;2023-08-06T10:22:08;8.48;;;3.60;;
81195;SDS011;70671;43.888;-79.394;2023-08-06T10:24:48;8.80;;;3.85;;
81195;SDS011;70671;43.888;-79.394;2023-08-06T10:27:34;8.85;;;3.85;;
81195;SDS011;70671;43.888;-79.394;2023-08-06T10:32:57;8.93;;;3.70;;
81195;SDS011;70671;43.888;-79.394;2023-08-06T10:35:28;9.00;;;3.90;;
81195;SDS011;70671;43.888;-79.394;2023-08-06T10:38:09;9.15;;;3.78;;
81195;SDS011;70671;43.888;-79.394;2023-08-06T10:40:36;9.02;;;3.95;;
81195;SDS011;70671;43.888;-79.394;2023-08-06T10:43:04;13.32;;;4.40;;
81195;SDS011;70671;43.888;-79.394;2023-08-06T10:48:02;8.65;;;3.95;;
81195;SDS011;70671;43.888;-79.394;2023-08-06T10:50:28;10.52;;;4.25;;
81195;SDS011;70671;43.888;-79.394;2023-08-06T10:52:56;9.07;;;3.92;;
81195;SDS011;70671;43.888;-79.394;2023-08-06T10:55:24;10.02;;;4.18;;
81195;SDS011;70671;43.888;-79.394;2023-08-06T10:57:51;9.27;;;4.00;;
81195;SDS011;70671;43.888;-79.394;2023-08-06T11:00:17;10.50;;;3.95;;
81195;SDS011;70671;43.888;-79.394;2023-08-06T11:02:43;10.13;;;3.92;;
81195;SDS011;70671;43.888;-79.394;2023-08-06T11:05:10;9.93;;;4.28;;
81195;SDS011;70671;43.888;-79.394;2023-08-06T11:07:36;11.65;;;3.97;;
81195;SDS011;70671;43.888;-79.394;2023-08-06T11:10:09;10.23;;;4.60;;
81195;SDS011;70671;43.888;-79.394;2023-08-06T11:12:38;10.35;;;4.25;;
81195;SDS011;70671;43.888;-79.394;2023-08-06T11:15:05;10.40;;;4.47;;
81195;SDS011;70671;43.888;-79.394;2023-08-06T11:17:32;9.85;;;4.28;;
81195;SDS011;70671;43.888;-79.394;2023-08-06T11:20:00;9.98;;;5.10;;
81195;SDS011;70671;43.888;-79.394;2023-08-06T11:22:27;9.27;;;4.50;;
81195;SDS011;70671;43.888;-79.394;2023-08-06T11:24:53;12.63;;;4.95;;
81195;SDS011;70671;43.888;-79.394;2023-08-06T11:27:20;9.20;;;3.97;;
81195;SDS011;70671;43.888;-79.394;2023-08-06T11:29:46;10.73;;;4.13;;
81195;SDS011;70671;43.888;-79.394;2023-08-06T11:32:12;9.82;;;4.63;;
81195;SDS011;70671;43.888;-79.394;2023-08-06T11:34:38;11.93;;;4.32;;
81195;SDS011;70671;43.888;-79.394;2023-08-06T11:37:06;9.80;;;4.95;;
81195;SDS011;70671;43.888;-79.394;2023-08-06T11:39:35;10.57;;;4.30;;
81195;SDS011;70671;43.888;-79.394;2023-08-06T11:42:02;10.90;;;4.60;;
81195;SDS011;70671;43.888;-79.394;2023-08-06T11:44:30;11.05;;;4.68;;
81195;SDS011;70671;43.888;-79.394;2023-08-06T11:46:59;9.27;;;4.05;;
81195;SDS011;70671;43.888;-79.394;2023-08-06T11:49:39;9.85;;;4.32;;
81195;SDS011;70671;43.888;-79.394;2023-08-06T11:52:27;9.35;;;4.22;;
81195;SDS011;70671;43.888;-79.394;2023-08-06T11:57:31;8.52;;;4.05;;
81195;SDS011;70671;43.888;-79.394;2023-08-06T12:00:03;8.18;;;3.80;;
81195;SDS011;70671;43.888;-79.394;2023-08-06T12:02:35;10.95;;;5.03;;
81195;SDS011;70671;43.888;-79.394;2023-08-06T12:07:30;7.97;;;3.80;;
81195;SDS011;70671;43.888;-79.394;2023-08-06T12:09:58;8.45;;;3.58;;
81195;SDS011;70671;43.888;-79.394;2023-08-06T12:12:24;8.65;;;3.85;;
81195;SDS011;70671;43.888;-79.394;2023-08-06T12:14:50;8.45;;;3.55;;
81195;SDS011;70671;43.888;-79.394;2023-08-06T12:17:16;8.27;;;3.55;;
81195;SDS011;70671;43.888;-79.394;2023-08-06T12:19:44;8.68;;;3.80;;
81195;SDS011;70671;43.888;-79.394;2023-08-06T12:22:10;6.95;;;3.42;;
81195;SDS011;70671;43.888;-79.394;2023-08-06T12:24:36;8.35;;;3.88;;
81195;SDS011;70671;43.888;-79.394;2023-08-06T12:27:02;6.97;;;3.33;;
81195;SDS011;70671;43.888;-79.394;2023-08-06T12:29:28;11.30;;;3.45;;
81195;SDS011;70671;43.888;-79.394;2023-08-06T12:31:54;7.93;;;3.38;;
81195;SDS011;70671;43.888;-79.394;2023-08-06T12:34:20;7.60;;;3.40;;
81195;SDS011;70671;43.888;-79.394;2023-08-06T12:36:46;7.00;;;3.00;;
81195;SDS011;70671;43.888;-79.394;2023-08-06T12:39:12;9.27;;;3.88;;
81195;SDS011;70671;43.888;-79.394;2023-08-06T12:41:38;8.70;;;3.53;;
81195;SDS011;70671;43.888;-79.394;2023-08-06T12:44:04;8.20;;;3.90;;
81195;SDS011;70671;43.888;-79.394;2023-08-06T12:46:30;8.23;;;3.65;;
81195;SDS011;70671;43.888;-79.394;2023-08-06T12:48:56;7.63;;;3.67;;
81195;SDS011;70671;43.888;-79.394;2023-08-06T12:51:23;6.38;;;3.22;;
81195;SDS011;70671;43.888;-79.394;2023-08-06T12:53:50;8.07;;;3.25;;
81195;SDS011;70671;43.888;-79.394;2023-08-06T12:56:16;10.30;;;3.65;;
81195;SDS011;70671;43.888;-79.394;2023-08-06T12:58:42;8.70;;;3.25;;
81195;SDS011;70671;43.888;-79.394;2023-08-06T13:01:08;6.95;;;3.40;;
81195;SDS011;70671;43.888;-79.394;2023-08-06T13:03:34;8.32;;;3.67;;
81195;SDS011;70671;43.888;-79.394;2023-08-06T13:06:00;7.90;;;3.50;;
81195;SDS011;70671;43.888;-79.394;2023-08-06T13:08:26;10.10;;;3.85;;
81195;SDS011;70671;43.888;-79.394;2023-08-06T13:10:51;8.63;;;3.72;;
81195;SDS011;70671;43.888;-79.394;2023-08-06T13:13:18;8.38;;;3.20;;
81195;SDS011;70671;43.888;-79.394;2023-08-06T13:15:44;6.65;;;3.10;;
81195;SDS011;70671;43.888;-79.394;2023-08-06T13:18:10;6.72;;;3.08;;
81195;SDS011;70671;43.888;-79.394;2023-08-06T13:20:37;7.00;;;2.95;;
81195;SDS011;70671;43.888;-79.394;2023-08-06T13:23:07;7.47;;;3.15;;
81195;SDS011;70671;43.888;-79.394;2023-08-06T13:25:33;7.35;;;3.17;;
81195;SDS011;70671;43.888;-79.394;2023-08-06T13:28:02;5.97;;;2.80;;
81195;SDS011;70671;43.888;-79.394;2023-08-06T13:30:28;8.15;;;3.10;;
81195;SDS011;70671;43.888;-79.394;2023-08-06T13:32:55;8.27;;;3.38;;
81195;SDS011;70671;43.888;-79.394;2023-08-06T13:35:22;7.68;;;3.50;;
81195;SDS011;70671;43.888;-79.394;2023-08-06T13:37:49;7.82;;;3.10;;
81195;SDS011;70671;43.888;-79.394;2023-08-06T13:40:15;7.18;;;3.08;;
81195;SDS011;70671;43.888;-79.394;2023-08-06T13:42:41;7.53;;;3.35;;
81195;SDS011;70671;43.888;-79.394;2023-08-06T13:45:07;7.32;;;3.35;;
81195;SDS011;70671;43.888;-79.394;2023-08-06T13:47:34;8.23;;;3.35;;
81195;SDS011;70671;43.888;-79.394;2023-08-06T13:49:59;8.27;;;3.05;;
81195;SDS011;70671;43.888;-79.394;2023-08-06T13:52:26;7.88;;;3.08;;
81195;SDS011;70671;43.888;-79.394;2023-08-06T13:54:52;7.47;;;3.15;;
81195;SDS011;70671;43.888;-79.394;2023-08-06T13:57:18;7.65;;;3.30;;
81195;SDS011;70671;43.888;-79.394;2023-08-06T13:59:44;7.15;;;3.28;;
81195;SDS011;70671;43.888;-79.394;2023-08-06T14:02:10;8.20;;;3.45;;
81195;SDS011;70671;43.888;-79.394;2023-08-06T14:04:36;7.47;;;2.90;;
81195;SDS011;70671;43.888;-79.394;2023-08-06T14:07:05;8.45;;;3.15;;
81195;SDS011;70671;43.888;-79.394;2023-08-06T14:09:31;6.90;;;2.92;;
81195;SDS011;70671;43.888;-79.394;2023-08-06T14:11:57;7.20;;;3.05;;
81195;SDS011;70671;43.888;-79.394;2023-08-06T14:14:23;7.13;;;3.35;;
81195;SDS011;70671;43.888;-79.394;2023-08-06T14:16:54;8.35;;;3.33;;
81195;SDS011;70671;43.888;-79.394;2023-08-06T14:19:20;6.65;;;3.05;;
81195;SDS011;70671;43.888;-79.394;2023-08-06T14:21:46;7.43;;;2.92;;
81195;SDS011;70671;43.888;-79.394;2023-08-06T14:24:12;6.57;;;2.80;;
81195;SDS011;70671;43.888;-79.394;2023-08-06T14:26:38;7.13;;;3.20;;
81195;SDS011;70671;43.888;-79.394;2023-08-06T14:29:04;7.78;;;3.33;;
81195;SDS011;70671;43.888;-79.394;2023-08-06T14:31:30;8.25;;;3.55;;
81195;SDS011;70671;43.888;-79.394;2023-08-06T14:33:56;6.90;;;2.95;;
81195;SDS011;70671;43.888;-79.394;2023-08-06T14:36:22;8.90;;;3.33;;
81195;SDS011;70671;43.888;-79.394;2023-08-06T14:38:48;7.75;;;3.90;;
81195;SDS011;70671;43.888;-79.394;2023-08-06T14:41:14;22.20;;;6.88;;
81195;SDS011;70671;43.888;-79.394;2023-08-06T14:43:40;10.52;;;3.72;;
81195;SDS011;70671;43.888;-79.394;2023-08-06T14:46:06;7.10;;;3.13;;
81195;SDS011;70671;43.888;-79.394;2023-08-06T14:48:32;7.95;;;3.50;;